Time;durP1;ratioP1;P1;durP2;ratioP2;P2;SDS_P1;SDS_P2;PMS_P1;PMS_P2;Temp;Humidity;BMP_temperature;BMP_pressure;BME280_temperature;BME280_humidity;BME280_pressure;Samples;Min_cycle;Max_cycle;Signal;HPM_P1;HPM_P2
2020/12/02 00:02:30;;;;;;;24.52;12.15;;;;;;;6.84;100.00;101999.72;5030973;28;20523;-84
2020/12/02 00:04:59;;;;;;;25.30;12.10;;;;;;;6.86;100.00;101999.59;5045344;28;20060;-84
2020/12/02 00:07:28;;;;;;;26.88;12.45;;;;;;;6.87;100.00;102002.13;5032245;28;20045;-85
2020/12/02 00:09:54;;;;;;;33.80;12.90;;;;;;;6.81;100.00;101996.41;5031785;28;20341;-84
2020/12/02 00:12:21;;;;;;;29.63;13.07;;;;;;;6.80;100.00;101995.56;5015212;28;20095;-85
2020/12/02 00:14:46;;;;;;;28.58;12.52;;;;;;;6.81;100.00;101991.06;5031384;28;20041;-84
2020/12/02 00:17:18;;;;;;;26.00;12.40;;;;;;;6.82;100.00;101995.44;5027775;28;20032;-85
2020/12/02 00:19:45;;;;;;;33.45;12.63;;;;;;;6.79;100.00;101998.34;5031654;28;20518;-85
2020/12/02 00:22:15;;;;;;;25.60;12.77;;;;;;;6.82;100.00;101996.28;5031356;28;20080;-84
2020/12/02 00:24:42;;;;;;;25.67;13.02;;;;;;;6.81;100.00;101996.41;5032457;28;20076;-84
2020/12/02 00:27:13;;;;;;;30.23;11.93;;;;;;;6.80;100.00;102000.06;5031931;28;20071;-85
2020/12/02 00:29:39;;;;;;;29.55;12.85;;;;;;;6.82;100.00;101990.94;4983177;28;20022;-84
2020/12/02 00:32:05;;;;;;;29.25;12.65;;;;;;;6.80;100.00;101987.56;5032582;28;20038;-84
2020/12/02 00:34:30;;;;;;;26.55;12.73;;;;;;;6.81;100.00;101991.06;5020205;28;20033;-84
2020/12/02 00:36:56;;;;;;;31.60;13.95;;;;;;;6.75;100.00;101987.91;5030608;28;20148;-85
2020/12/02 00:39:21;;;;;;;25.90;12.40;;;;;;;6.73;100.00;101981.84;4998616;28;20079;-84
2020/12/02 00:41:48;;;;;;;29.52;12.95;;;;;;;6.73;100.00;101987.19;5014648;28;20374;-83
2020/12/02 00:44:15;;;;;;;30.40;12.90;;;;;;;6.72;100.00;101984.59;5011249;28;20044;-85
2020/12/02 00:46:45;;;;;;;31.77;13.07;;;;;;;6.74;100.00;101985.34;5015381;28;20034;-84
2020/12/02 00:49:13;;;;;;;26.35;13.23;;;;;;;6.81;100.00;101988.41;5027985;28;20499;-85
2020/12/02 00:51:38;;;;;;;30.30;14.73;;;;;;;6.77;100.00;101994.94;5014360;28;20397;-85
2020/12/02 00:54:04;;;;;;;24.70;13.20;;;;;;;6.74;100.00;101988.88;5020132;28;20046;-84
2020/12/02 00:56:32;;;;;;;23.30;12.38;;;;;;;6.75;100.00;101984.38;5030753;28;20037;-86
2020/12/02 00:59:08;;;;;;;29.73;13.85;;;;;;;6.79;100.00;101988.53;5031348;28;20037;-85
2020/12/02 01:01:58;;;;;;;26.40;12.88;;;;;;;6.78;100.00;101981.50;5028030;28;20132;-84
2020/12/02 01:04:23;;;;;;;25.95;11.98;;;;;;;6.73;100.00;101984.50;5030712;28;20708;-84
2020/12/02 01:06:51;;;;;;;27.40;13.10;;;;;;;6.79;100.00;101985.88;5014260;28;20040;-85
2020/12/02 01:09:17;;;;;;;27.00;12.18;;;;;;;6.73;100.00;101984.50;5031666;28;20032;-85
2020/12/02 01:11:44;;;;;;;29.58;12.73;;;;;;;6.70;100.00;101994.53;5030692;28;20108;-85
2020/12/02 01:14:12;;;;;;;28.45;15.05;;;;;;;6.73;100.00;101995.19;5030614;28;20041;-84
2020/12/02 01:16:42;;;;;;;25.90;12.68;;;;;;;6.77;100.00;101987.78;5025604;28;20096;-84
2020/12/02 01:19:11;;;;;;;28.58;13.43;;;;;;;6.78;100.00;101993.97;5025665;28;20039;-84
2020/12/02 01:21:55;;;;;;;24.95;11.85;;;;;;;6.70;100.00;101990.06;5030830;28;20404;-85
2020/12/02 01:24:28;;;;;;;26.35;12.60;;;;;;;6.72;100.00;101985.44;5026696;28;20025;-85
2020/12/02 01:27:02;;;;;;;31.73;13.63;;;;;;;6.73;100.00;101989.00;5027811;28;20041;-84
2020/12/02 01:29:27;;;;;;;27.42;13.52;;;;;;;6.74;100.00;101996.88;5030043;28;20437;-85
2020/12/02 01:31:55;;;;;;;34.35;12.95;;;;;;;6.72;100.00;101998.78;5031599;28;20076;-85
2020/12/02 01:34:23;;;;;;;27.25;13.10;;;;;;;6.71;100.00;101986.41;5020985;28;20136;-84
2020/12/02 01:37:02;;;;;;;26.42;13.38;;;;;;;6.70;100.00;101983.88;5029818;28;20036;-84
2020/12/02 01:39:31;;;;;;;25.88;13.02;;;;;;;6.67;100.00;101982.28;5031680;28;20103;-85
2020/12/02 01:41:57;;;;;;;27.48;13.75;;;;;;;6.68;100.00;101985.81;5030087;28;20044;-84
2020/12/02 01:44:23;;;;;;;30.38;13.48;;;;;;;6.65;100.00;101994.03;5029959;28;20033;-84
2020/12/02 01:47:07;;;;;;;31.02;13.52;;;;;;;6.69;100.00;101988.38;5017885;28;20121;-84
2020/12/02 01:49:39;;;;;;;25.40;12.18;;;;;;;6.71;100.00;101999.75;5029532;28;20025;-84
2020/12/02 01:52:34;;;;;;;27.08;12.57;;;;;;;6.68;100.00;101994.66;5029875;28;20033;-84
2020/12/02 01:55:02;;;;;;;26.45;12.43;;;;;;;6.68;100.00;101997.34;5010225;28;20048;-85
2020/12/02 01:57:35;;;;;;;34.72;14.15;;;;;;;6.66;100.00;101998.41;5025049;28;20029;-84
2020/12/02 02:00:14;;;;;;;27.77;13.10;;;;;;;6.67;100.00;102002.75;5030015;28;20025;-84
2020/12/02 02:02:40;;;;;;;27.17;12.77;;;;;;;6.67;100.00;102006.28;5013755;28;20037;-84
2020/12/02 02:05:29;;;;;;;26.10;12.63;;;;;;;6.63;100.00;102004.81;5030057;28;20033;-84
2020/12/02 02:07:56;;;;;;;27.02;12.77;;;;;;;6.64;100.00;102005.66;5029479;28;20037;-84
2020/12/02 02:10:26;;;;;;;28.35;13.50;;;;;;;6.66;100.00;102006.41;5029817;28;20035;-85
2020/12/02 02:13:10;;;;;;;31.05;13.35;;;;;;;6.61;100.00;102004.06;5017773;28;20037;-84
2020/12/02 02:15:42;;;;;;;26.65;12.65;;;;;;;6.60;100.00;102014.84;5011069;28;20053;-84
2020/12/02 02:18:13;;;;;;;25.77;11.98;;;;;;;6.60;100.00;102009.53;5032844;28;20516;-85
2020/12/02 02:20:46;;;;;;;34.75;12.80;;;;;;;6.57;100.00;102004.41;5027560;28;20036;-85
2020/12/02 02:23:13;;;;;;;23.27;12.63;;;;;;;6.53;100.00;102002.94;5029582;28;20044;-84
2020/12/02 02:25:42;;;;;;;25.10;12.57;;;;;;;6.47;100.00;102001.53;5031000;28;20055;-84
2020/12/02 02:28:09;;;;;;;30.33;14.02;;;;;;;6.47;100.00;101996.22;5030428;28;20041;-84
2020/12/02 02:30:35;;;;;;;29.35;12.93;;;;;;;6.36;100.00;101989.00;4996684;28;20025;-84
2020/12/02 02:33:01;;;;;;;27.55;13.25;;;;;;;6.36;100.00;101993.47;5026419;28;20037;-84
2020/12/02 02:35:29;;;;;;;25.77;13.27;;;;;;;6.37;100.00;101990.69;5012959;28;20171;-84
2020/12/02 02:37:55;;;;;;;28.45;14.00;;;;;;;6.43;100.00;101994.75;5013023;28;20471;-84
2020/12/02 02:40:20;;;;;;;33.35;15.45;;;;;;;6.55;100.00;101988.53;5023969;28;20120;-84
2020/12/02 02:42:49;;;;;;;26.20;13.55;;;;;;;6.47;100.00;101999.72;5029589;28;20029;-84
2020/12/02 02:45:24;;;;;;;29.23;13.15;;;;;;;6.41;100.00;101994.00;5022638;28;20037;-85
2020/12/02 02:47:52;;;;;;;28.73;13.07;;;;;;;6.35;100.00;101995.31;5014255;28;20037;-84
2020/12/02 02:50:27;;;;;;;27.17;13.35;;;;;;;6.36;100.00;101989.00;5009848;28;20043;-84
2020/12/02 02:52:53;;;;;;;29.08;15.18;;;;;;;6.35;100.00;101989.13;5030596;28;20390;-84
2020/12/02 02:55:22;;;;;;;24.83;12.73;;;;;;;6.30;100.00;101985.94;5029713;28;20116;-84
2020/12/02 02:57:48;;;;;;;25.67;12.60;;;;;;;6.20;100.00;101986.59;5030289;28;20036;-84
2020/12/02 03:00:23;;;;;;;31.08;14.20;;;;;;;6.13;100.00;101990.66;5029030;28;20021;-85
2020/12/02 03:02:48;;;;;;;26.77;13.20;;;;;;;6.10;100.00;101992.69;5032711;28;20026;-84
2020/12/02 03:05:17;;;;;;;30.38;14.75;;;;;;;6.05;100.00;101987.69;5034559;28;20036;-84
2020/12/02 03:07:43;;;;;;;29.77;13.68;;;;;;;6.02;100.00;101995.03;5034602;28;20072;-84
2020/12/02 03:10:14;;;;;;;28.23;13.43;;;;;;;6.01;100.00;101994.19;5033401;28;20049;-85
2020/12/02 03:12:42;;;;;;;27.52;13.07;;;;;;;6.04;100.00;102001.13;5033406;28;20045;-84
2020/12/02 03:15:09;;;;;;;29.65;14.07;;;;;;;6.11;100.00;101997.06;5034164;28;20030;-84
2020/12/02 03:17:34;;;;;;;25.60;13.38;;;;;;;6.12;100.00;101993.44;5015418;28;20489;-85
2020/12/02 03:20:10;;;;;;;25.23;13.40;;;;;;;6.18;100.00;101993.84;5010721;28;20125;-84
2020/12/02 03:22:36;;;;;;;25.55;13.05;;;;;;;6.16;100.00;101984.25;5022224;28;20034;-84
2020/12/02 03:25:04;;;;;;;30.15;14.57;;;;;;;6.14;100.00;101986.19;5022353;28;20048;-86
2020/12/02 03:27:30;;;;;;;29.50;13.15;;;;;;;6.10;100.00;101982.88;5028275;28;20033;-85
2020/12/02 03:29:55;;;;;;;24.33;12.75;;;;;;;6.06;100.00;101978.72;5032855;28;20018;-84
2020/12/02 03:32:21;;;;;;;27.98;13.77;;;;;;;6.12;100.00;101983.63;5029267;28;20034;-85
2020/12/02 03:34:47;;;;;;;32.17;15.07;;;;;;;6.18;100.00;101963.69;5022199;28;20038;-85
2020/12/02 03:37:13;;;;;;;30.85;14.65;;;;;;;6.20;100.00;101967.09;5033195;28;20056;-85
2020/12/02 03:39:39;;;;;;;29.13;15.30;;;;;;;6.22;100.00;101959.81;5034616;28;20065;-84
2020/12/02 03:42:04;;;;;;;27.27;14.43;;;;;;;6.21;100.00;101961.66;5016702;28;20033;-84
2020/12/02 03:44:30;;;;;;;30.08;15.70;;;;;;;6.19;100.00;101955.59;5024106;28;20041;-84
2020/12/02 03:46:55;;;;;;;28.10;13.65;;;;;;;6.14;100.00;101957.72;5012613;28;20026;-84
2020/12/02 03:49:21;;;;;;;31.80;15.25;;;;;;;6.14;100.00;101959.56;5029203;28;20037;-84
2020/12/02 03:51:47;;;;;;;33.95;15.30;;;;;;;6.09;100.00;101957.22;5034246;28;20030;-84
2020/12/02 03:54:12;;;;;;;33.17;15.73;;;;;;;6.09;100.00;101962.53;5026210;28;20041;-85
2020/12/02 03:56:38;;;;;;;33.70;15.82;;;;;;;6.06;100.00;101956.56;5033937;28;20096;-85
2020/12/02 03:59:04;;;;;;;32.92;16.00;;;;;;;6.03;100.00;101959.47;5031908;28;20033;-85
2020/12/02 04:01:30;;;;;;;29.98;15.20;;;;;;;6.03;100.00;101962.13;5006199;28;20060;-85
2020/12/02 04:03:56;;;;;;;27.88;13.77;;;;;;;6.04;100.00;101947.84;5032992;28;20045;-85
2020/12/02 04:06:21;;;;;;;27.63;14.13;;;;;;;6.04;100.00;101954.03;5032909;28;20527;-85
2020/12/02 04:08:47;;;;;;;28.35;14.45;;;;;;;5.95;100.00;101938.69;5034569;28;20040;-84
2020/12/02 04:11:14;;;;;;;32.53;14.68;;;;;;;5.99;100.00;101953.50;5016863;28;20083;-84
2020/12/02 04:13:40;;;;;;;27.73;13.32;;;;;;;6.01;100.00;101940.06;5031824;28;20137;-84
2020/12/02 04:16:06;;;;;;;31.23;14.90;;;;;;;5.96;100.00;101933.25;5030465;28;20489;-84
2020/12/02 04:18:31;;;;;;;35.95;15.20;;;;;;;5.98;100.00;101938.50;5011928;28;20040;-84
2020/12/02 04:20:57;;;;;;;27.73;13.75;;;;;;;5.94;100.00;101948.50;5016178;28;20089;-84
2020/12/02 04:23:23;;;;;;;30.27;15.05;;;;;;;5.92;100.00;101945.13;5014652;28;20037;-84
2020/12/02 04:25:49;;;;;;;34.85;15.13;;;;;;;5.90;100.00;101946.97;5032938;28;20291;-84
2020/12/02 04:28:16;;;;;;;31.70;14.95;;;;;;;5.85;100.00;101943.78;5033325;28;20033;-85
2020/12/02 04:30:43;;;;;;;35.15;15.60;;;;;;;5.81;100.00;101944.97;5016004;28;20033;-84
2020/12/02 04:33:11;;;;;;;32.10;16.23;;;;;;;5.81;100.00;101939.63;5028931;28;20034;-85
2020/12/02 04:35:37;;;;;;;36.22;16.98;;;;;;;5.82;100.00;101944.00;5016283;28;20037;-85
2020/12/02 04:38:03;;;;;;;32.20;16.00;;;;;;;5.91;100.00;101945.16;5031922;28;20293;-85
2020/12/02 04:40:36;;;;;;;41.28;17.02;;;;;;;5.94;100.00;101926.34;5016182;28;20112;-84
2020/12/02 04:43:10;;;;;;;34.25;15.95;;;;;;;5.94;100.00;101932.53;5015850;28;20105;-85
2020/12/02 04:45:36;;;;;;;32.75;15.35;;;;;;;5.97;100.00;101934.97;5033808;28;20403;-84
2020/12/02 04:48:10;;;;;;;34.63;16.25;;;;;;;6.00;100.00;101930.38;5029466;28;20030;-84
2020/12/02 04:50:36;;;;;;;33.58;15.75;;;;;;;6.02;100.00;101928.44;5033786;28;20036;-84
2020/12/02 04:53:11;;;;;;;38.10;16.30;;;;;;;6.01;100.00;101929.41;5032620;28;20124;-83
2020/12/02 04:55:38;;;;;;;33.50;15.95;;;;;;;6.01;100.00;101926.75;5032560;28;20041;-85
2020/12/02 04:58:19;;;;;;;36.78;17.15;;;;;;;6.02;100.00;101934.63;5033367;28;20025;-84
2020/12/02 05:00:45;;;;;;;34.00;15.55;;;;;;;6.03;100.00;101936.34;5033722;28;20091;-84
2020/12/02 05:03:13;;;;;;;35.03;16.23;;;;;;;6.06;100.00;101932.59;5015803;28;20033;-84
2020/12/02 05:05:39;;;;;;;33.53;16.48;;;;;;;6.01;100.00;101935.59;5015747;28;20837;-85
2020/12/02 05:08:17;;;;;;;34.50;15.68;;;;;;;6.01;100.00;101935.59;5015416;28;20133;-84
2020/12/02 05:10:42;;;;;;;42.22;17.45;;;;;;;6.03;100.00;101933.69;5032034;28;20021;-83
2020/12/02 05:13:10;;;;;;;36.95;15.52;;;;;;;6.08;100.00;101933.34;5032146;28;20132;-84
2020/12/02 05:15:35;;;;;;;34.40;15.82;;;;;;;6.06;100.00;101928.13;4998784;28;20052;-85
2020/12/02 05:18:13;;;;;;;41.38;17.80;;;;;;;6.04;100.00;101926.53;5023134;28;20033;-85
2020/12/02 05:20:39;;;;;;;37.00;16.80;;;;;;;6.02;100.00;101928.44;5033248;28;20145;-84
2020/12/02 05:23:16;;;;;;;41.60;17.02;;;;;;;6.02;100.00;101925.78;5030508;28;20124;-84
2020/12/02 05:25:41;;;;;;;38.90;17.60;;;;;;;6.04;100.00;101927.38;5032434;28;20065;-84
2020/12/02 05:28:24;;;;;;;42.03;17.88;;;;;;;6.05;100.00;101923.75;5032980;28;20069;-85
2020/12/02 05:31:02;;;;;;;40.60;17.17;;;;;;;6.03;100.00;101923.03;5020930;28;20469;-85
2020/12/02 05:33:31;;;;;;;39.67;17.77;;;;;;;5.90;100.00;101919.50;5026877;28;20566;-85
2020/12/02 05:36:05;;;;;;;40.47;16.38;;;;;;;5.91;100.00;101916.75;5032150;28;20041;-85
2020/12/02 05:38:36;;;;;;;42.63;17.97;;;;;;;5.91;100.00;101910.53;5031489;28;20121;-85
2020/12/02 05:41:04;;;;;;;44.67;18.40;;;;;;;5.84;100.00;101912.81;5015511;28;20496;-85
2020/12/02 05:43:45;;;;;;;43.92;17.65;;;;;;;5.75;100.00;101915.25;5031898;28;20033;-85
2020/12/02 05:46:21;;;;;;;44.05;17.98;;;;;;;5.74;100.00;101919.75;5031092;28;20081;-85
2020/12/02 05:48:47;;;;;;;42.25;18.35;;;;;;;5.71;100.00;101919.94;5041170;28;20029;-84
2020/12/02 05:51:18;;;;;;;44.92;18.80;;;;;;;5.71;100.00;101922.63;5033130;28;20419;-85
2020/12/02 05:53:52;;;;;;;45.15;19.13;;;;;;;5.71;100.00;101922.63;5013771;28;20061;-85
2020/12/02 05:56:18;;;;;;;43.00;17.60;;;;;;;5.70;100.00;101920.91;5032688;28;20064;-84
2020/12/02 05:58:45;;;;;;;39.22;16.90;;;;;;;5.66;100.00;101914.09;5032637;28;20580;-85
2020/12/02 06:01:15;;;;;;;42.33;18.02;;;;;;;5.61;100.00;101909.09;5030830;28;20033;-85
2020/12/02 06:03:41;;;;;;;40.63;17.27;;;;;;;5.61;100.00;101910.91;5014615;28;20033;-85
2020/12/02 06:06:12;;;;;;;40.58;17.58;;;;;;;5.64;100.00;101908.03;5031783;28;20188;-86
2020/12/02 06:08:40;;;;;;;41.42;17.40;;;;;;;5.70;100.00;101896.94;5015261;28;20413;-85
2020/12/02 06:11:52;;;;;;;38.53;16.65;;;;;;;5.74;100.00;101892.28;5032044;28;20160;-87
2020/12/02 06:14:38;;;;;;;47.25;17.75;;;;;;;5.82;100.00;101880.09;5028825;28;20041;-86
2020/12/02 06:17:05;;;;;;;35.15;16.25;;;;;;;5.76;100.00;101883.19;5022446;28;20482;-86
2020/12/02 06:19:38;;;;;;;33.50;15.45;;;;;;;5.77;100.00;101892.03;5027217;28;20333;-85
2020/12/02 06:22:05;;;;;;;33.15;15.30;;;;;;;5.78;100.00;101891.94;5032697;28;20037;-83
2020/12/02 06:24:32;;;;;;;42.67;17.60;;;;;;;5.82;100.00;101893.41;5030749;28;20041;-87
2020/12/02 06:26:59;;;;;;;47.38;18.45;;;;;;;5.83;100.00;101896.94;5032072;28;20041;-86
2020/12/02 06:29:29;;;;;;;45.15;18.13;;;;;;;5.83;100.00;101897.78;5030264;28;20052;-84
2020/12/02 06:31:59;;;;;;;48.42;19.50;;;;;;;5.75;100.00;101889.50;5031396;28;20090;-86
2020/12/02 06:34:28;;;;;;;47.17;17.75;;;;;;;5.75;100.00;101889.50;5031720;28;20079;-87
2020/12/02 06:37:12;;;;;;;43.08;18.10;;;;;;;5.76;100.00;101888.53;5031848;28;20052;-85
2020/12/02 06:39:41;;;;;;;52.05;18.98;;;;;;;5.80;100.00;101884.69;5032071;28;20026;-87
2020/12/02 06:42:29;;;;;;;44.22;18.17;;;;;;;5.90;100.00;101883.06;5032302;28;20090;-86
2020/12/02 06:45:10;;;;;;;50.10;18.85;;;;;;;5.92;100.00;101883.84;5032482;28;20120;-86
2020/12/02 06:47:55;;;;;;;42.78;17.98;;;;;;;5.86;100.00;101884.25;5034697;28;20112;-86
2020/12/02 06:50:40;;;;;;;49.28;19.65;;;;;;;5.80;100.00;101886.50;5034427;28;20034;-86
2020/12/02 06:53:37;;;;;;;46.65;18.35;;;;;;;5.69;100.00;101879.28;5030648;28;20033;-86
2020/12/02 06:56:16;;;;;;;50.97;20.15;;;;;;;5.70;100.00;101886.31;5001573;28;20041;-86
2020/12/02 06:59:12;;;;;;;47.15;18.98;;;;;;;5.75;100.00;101886.81;5032087;28;20041;-86
2020/12/02 07:01:38;;;;;;;51.35;19.30;;;;;;;5.70;100.00;101888.97;5029564;28;20042;-86
2020/12/02 07:04:13;;;;;;;50.25;19.27;;;;;;;5.72;100.00;101877.25;5029258;28;20047;-85
2020/12/02 07:06:38;;;;;;;50.28;17.65;;;;;;;5.77;100.00;101879.56;5028711;28;20112;-86
2020/12/02 07:09:10;;;;;;;53.15;19.45;;;;;;;5.79;100.00;101882.13;5030508;28;20109;-85
2020/12/02 07:11:36;;;;;;;50.65;19.95;;;;;;;5.73;100.00;101883.44;5030748;28;20037;-89
2020/12/02 07:14:15;;;;;;;50.85;19.33;;;;;;;5.72;100.00;101876.38;5030155;28;20048;-83
2020/12/02 07:16:41;;;;;;;55.20;21.35;;;;;;;5.70;100.00;101876.50;5010791;28;20040;-85
2020/12/02 07:19:15;;;;;;;52.78;19.92;;;;;;;5.70;100.00;101873.84;5031466;28;20022;-84
2020/12/02 07:21:52;;;;;;;50.08;18.00;;;;;;;5.68;100.00;101882.91;5039464;28;20034;-84
2020/12/02 07:24:22;;;;;;;52.40;19.67;;;;;;;5.69;100.00;101873.97;5010702;28;20037;-85
2020/12/02 07:26:49;;;;;;;52.55;19.65;;;;;;;5.76;100.00;101879.69;5018713;28;20030;-84
2020/12/02 07:29:23;;;;;;;53.47;19.30;;;;;;;5.75;100.00;101893.97;5010925;28;20053;-84
2020/12/02 07:31:59;;;;;;;50.33;19.17;;;;;;;5.75;100.00;101889.50;5019146;28;20170;-85
2020/12/02 07:34:25;;;;;;;51.55;19.27;;;;;;;5.72;100.00;101905.66;5029356;28;20065;-84
2020/12/02 07:36:59;;;;;;;46.70;18.27;;;;;;;5.84;100.00;101887.97;5028354;28;20045;-84
2020/12/02 07:39:27;;;;;;;49.40;19.52;;;;;;;5.78;100.00;101891.09;5029347;28;20029;-84
2020/12/02 07:42:14;;;;;;;49.90;18.92;;;;;;;5.77;100.00;101892.88;5030107;28;20041;-84
2020/12/02 07:44:44;;;;;;;48.13;18.58;;;;;;;5.83;100.00;101887.13;5015568;28;20026;-84
2020/12/02 07:47:12;;;;;;;42.50;17.88;;;;;;;5.78;100.00;101886.63;5025903;28;20029;-84
2020/12/02 07:49:41;;;;;;;49.50;17.60;;;;;;;5.72;100.00;101882.59;5024401;28;20037;-86
2020/12/02 07:52:19;;;;;;;47.17;18.75;;;;;;;5.62;100.00;101878.88;5032135;28;20069;-85
2020/12/02 07:54:45;;;;;;;44.42;18.02;;;;;;;5.61;100.00;101876.31;5032022;28;20053;-84
2020/12/02 07:57:14;;;;;;;54.00;18.25;;;;;;;5.61;100.00;101873.63;5032893;28;20041;-84
2020/12/02 07:59:47;;;;;;;56.60;21.00;;;;;;;5.59;100.00;101878.22;5031848;28;20489;-84
2020/12/02 08:02:19;;;;;;;52.00;20.33;;;;;;;5.61;100.00;101881.63;5033006;28;20386;-85
2020/12/02 08:04:48;;;;;;;46.95;18.52;;;;;;;5.62;100.00;101872.69;5018594;28;20033;-87
2020/12/02 08:07:14;;;;;;;57.60;20.42;;;;;;;5.61;100.00;101886.94;5003288;28;20121;-86
2020/12/02 08:09:45;;;;;;;55.65;19.45;;;;;;;5.65;100.00;101878.63;5026611;28;20064;-87
2020/12/02 08:12:20;;;;;;;44.70;18.75;;;;;;;5.65;100.00;101864.47;5002556;28;20148;-86
2020/12/02 08:14:58;;;;;;;49.08;20.17;;;;;;;5.64;100.00;101862.78;5024962;28;20384;-86
2020/12/02 08:17:55;;;;;;;47.92;18.67;;;;;;;5.64;100.00;101870.78;5024645;28;20087;-87
2020/12/02 08:20:34;;;;;;;49.42;18.83;;;;;;;5.64;100.00;101857.47;5006508;28;20045;-89
2020/12/02 08:23:09;;;;;;;52.78;19.42;;;;;;;5.70;100.00;101862.34;5026663;28;20034;-87
2020/12/02 08:25:37;;;;;;;51.50;20.50;;;;;;;5.73;100.00;101864.78;5017640;28;20330;-86
2020/12/02 08:28:09;;;;;;;49.22;19.10;;;;;;;5.67;100.00;101862.53;5028191;28;20041;-89
2020/12/02 08:30:41;;;;;;;54.28;18.83;;;;;;;5.68;100.00;101857.13;5011807;28;20049;-85
2020/12/02 08:33:11;;;;;;;52.15;19.55;;;;;;;5.70;100.00;101859.69;5019169;28;20405;-86
2020/12/02 08:35:42;;;;;;;54.65;18.65;;;;;;;5.69;100.00;101857.97;5032264;28;20034;-85
2020/12/02 08:39:06;;;;;;;54.53;20.92;;;;;;;5.65;100.00;101860.00;5030426;28;20052;-86
2020/12/02 08:41:43;;;;;;;52.92;19.55;;;;;;;5.67;100.00;101859.88;4993340;28;20509;-86
2020/12/02 08:44:12;;;;;;;59.72;21.45;;;;;;;5.70;100.00;101857.00;5031759;28;20475;-86
2020/12/02 08:46:49;;;;;;;53.42;19.80;;;;;;;5.70;100.00;101849.88;5022284;28;20025;-86
2020/12/02 08:49:15;;;;;;;56.63;19.58;;;;;;;5.76;100.00;101843.25;5032155;28;20535;-88
2020/12/02 08:51:43;;;;;;;58.72;20.33;;;;;;;5.81;100.00;101851.75;4983957;28;20042;-87
2020/12/02 08:54:11;;;;;;;54.50;18.80;;;;;;;5.81;100.00;101854.41;5021578;28;20047;-88
2020/12/02 08:56:38;;;;;;;55.45;20.50;;;;;;;5.82;100.00;101849.94;5029352;28;20397;-87
2020/12/02 08:59:07;;;;;;;59.55;21.08;;;;;;;5.85;100.00;101845.25;5003442;28;20025;-88
2020/12/02 09:01:32;;;;;;;54.85;19.98;;;;;;;5.85;100.00;101839.09;5030793;28;20203;-88
2020/12/02 09:04:01;;;;;;;56.15;19.60;;;;;;;5.83;100.00;101833.88;5014796;28;20061;-89
2020/12/02 09:06:27;;;;;;;60.05;21.98;;;;;;;5.83;100.00;101835.69;5030895;28;20408;-88
2020/12/02 09:08:54;;;;;;;56.75;19.60;;;;;;;5.83;100.00;101833.03;5010829;28;20030;-88
2020/12/02 09:11:32;;;;;;;62.50;21.33;;;;;;;5.87;100.00;101830.03;5015742;28;20068;-89
2020/12/02 09:14:13;;;;;;;58.28;20.95;;;;;;;5.88;100.00;101828.22;4987401;28;20060;-89
2020/12/02 09:16:40;;;;;;;60.13;21.52;;;;;;;5.92;100.00;101830.59;5003627;28;20037;-87
2020/12/02 09:19:10;;;;;;;64.93;22.15;;;;;;;5.91;100.00;101827.97;5012041;28;20037;-86
2020/12/02 09:21:36;;;;;;;51.70;20.75;;;;;;;5.97;100.00;101833.75;5013508;28;20400;-88
2020/12/02 09:24:02;;;;;;;54.75;19.98;;;;;;;6.07;100.00;101830.38;5017505;28;20025;-87
2020/12/02 09:26:33;;;;;;;60.15;20.30;;;;;;;6.10;100.00;101835.50;5023209;28;20037;-87
2020/12/02 09:28:59;;;;;;;50.20;19.35;;;;;;;6.05;100.00;101830.50;5001352;28;20389;-87
2020/12/02 09:31:27;;;;;;;55.40;21.85;;;;;;;6.05;100.00;101829.66;5023558;28;20045;-87
2020/12/02 09:33:53;;;;;;;58.72;21.85;;;;;;;6.04;100.00;101820.81;5016950;28;20029;-87
2020/12/02 09:36:20;;;;;;;57.75;21.15;;;;;;;6.02;100.00;101817.41;5022952;28;20099;-87
2020/12/02 09:38:47;;;;;;;56.92;19.67;;;;;;;6.04;100.00;101814.66;5028579;28;20034;-87
2020/12/02 09:41:28;;;;;;;61.53;21.70;;;;;;;6.10;100.00;101822.19;5018272;28;20487;-87
2020/12/02 09:44:15;;;;;;;56.88;20.42;;;;;;;6.04;100.00;101819.97;5025411;28;20354;-87
2020/12/02 09:46:45;;;;;;;62.90;21.67;;;;;;;6.01;100.00;101814.88;5018349;28;20401;-89
2020/12/02 09:49:13;;;;;;;58.00;20.50;;;;;;;6.02;100.00;101811.22;5002326;28;20285;-89
2020/12/02 09:52:09;;;;;;;55.90;21.45;;;;;;;6.08;100.00;101810.81;5029055;28;20509;-90
2020/12/02 09:54:39;;;;;;;60.00;20.92;;;;;;;6.07;100.00;101812.59;5010611;28;20140;-89
2020/12/02 09:57:55;;;;;;;54.80;20.55;;;;;;;6.09;100.00;101794.69;5020826;28;20116;-91
2020/12/02 10:00:41;;;;;;;62.00;22.98;;;;;;;6.15;100.00;101796.91;4990976;28;20098;-90
2020/12/02 10:03:21;;;;;;;60.90;21.55;;;;;;;6.19;100.00;101794.88;5024010;28;20515;-90
2020/12/02 10:06:08;;;;;;;57.03;21.70;;;;;;;6.25;100.00;101788.22;5028538;28;20042;-89
2020/12/02 10:08:41;;;;;;;58.40;21.58;;;;;;;6.28;100.00;101796.84;4983911;28;20076;-89
2020/12/02 10:11:31;;;;;;;56.60;21.30;;;;;;;6.36;100.00;101791.75;5016144;28;20042;-90
2020/12/02 10:14:04;;;;;;;49.97;20.67;;;;;;;6.40;100.00;101797.72;5007020;28;20038;-89
2020/12/02 10:16:42;;;;;;;60.72;23.05;;;;;;;6.30;100.00;101786.91;5029884;28;20037;-89
2020/12/02 10:19:19;;;;;;;57.72;21.98;;;;;;;6.35;100.00;101786.56;5014975;28;20034;-89
2020/12/02 10:22:16;;;;;;;60.95;22.88;;;;;;;6.35;100.00;101784.75;5015834;28;20160;-90
2020/12/02 10:25:29;;;;;;;55.00;20.25;;;;;;;6.48;100.00;101774.00;5015169;28;20047;-89
2020/12/02 10:28:08;;;;;;;53.05;19.77;;;;;;;6.48;100.00;101766.00;5024312;28;20397;-89
2020/12/02 10:30:53;;;;;;;61.78;21.67;;;;;;;6.51;100.00;101767.59;5027245;28;20100;-89
2020/12/02 10:33:40;;;;;;;59.00;21.20;;;;;;;6.44;100.00;101757.41;5018881;28;20033;-90
2020/12/02 10:36:25;;;;;;;54.63;21.17;;;;;;;6.39;100.00;101746.25;5020224;28;20389;-90
2020/12/02 10:38:57;;;;;;;58.30;23.05;;;;;;;6.42;100.00;101756.66;5029205;28;20061;-89
2020/12/02 10:41:30;;;;;;;59.42;21.85;;;;;;;6.53;100.00;101757.66;5027993;28;20413;-89
2020/12/02 10:44:08;;;;;;;53.42;20.23;;;;;;;6.46;100.00;101747.44;5002769;28;20037;-90
2020/12/02 10:46:59;;;;;;;58.58;21.95;;;;;;;6.51;100.00;101749.75;5011339;28;20507;-89
2020/12/02 10:49:29;;;;;;;59.60;22.60;;;;;;;6.47;100.00;101746.47;5029084;28;20397;-89
2020/12/02 10:52:00;;;;;;;101.85;44.63;;;;;;;6.53;100.00;101737.19;5015763;28;20034;-90
2020/12/02 10:54:34;;;;;;;57.42;21.95;;;;;;;6.56;100.00;101736.94;4997240;28;20037;-89
2020/12/02 10:57:14;;;;;;;54.75;23.00;;;;;;;6.57;100.00;101727.13;5021021;28;20049;-90
2020/12/02 10:59:40;;;;;;;71.70;24.75;;;;;;;6.56;100.00;101718.28;5025300;28;20033;-90
2020/12/02 11:02:14;;;;;;;57.53;22.73;;;;;;;6.55;100.00;101718.41;5022591;28;20163;-89
2020/12/02 11:04:40;;;;;;;53.97;21.23;;;;;;;6.56;100.00;101710.28;5021693;28;20034;-90
2020/12/02 11:07:28;;;;;;;51.28;21.10;;;;;;;6.59;100.00;101709.19;5004889;28;20545;-89
2020/12/02 11:10:11;;;;;;;58.80;21.40;;;;;;;6.58;100.00;101702.19;5030421;28;20112;-89
2020/12/02 11:12:43;;;;;;;60.53;22.20;;;;;;;6.63;100.00;101698.19;5016617;28;20046;-89
2020/12/02 11:15:16;;;;;;;53.20;21.23;;;;;;;6.60;100.00;101692.22;5017584;28;20099;-89
2020/12/02 11:18:09;;;;;;;58.38;22.60;;;;;;;6.61;100.00;101683.25;5022911;28;20042;-89
2020/12/02 11:20:59;;;;;;;47.58;20.33;;;;;;;6.66;100.00;101686.41;4994031;28;20022;-89
2020/12/02 11:27:32;;;;;;;46.00;19.17;;;;;;;6.69;100.00;101671.03;5027978;28;20137;-90
2020/12/02 11:30:37;;;;;;;51.63;20.40;;;;;;;6.62;100.00;101656.47;5032114;28;20564;-90
2020/12/02 11:33:27;;;;;;;50.28;19.70;;;;;;;6.67;100.00;101675.59;4979433;28;20050;-89
2020/12/02 11:41:02;;;;;;;55.75;21.60;;;;;;;6.72;100.00;101645.91;4982547;28;20052;-89
2020/12/02 11:47:42;;;;;;;51.30;20.20;;;;;;;6.83;100.00;101653.94;5020445;28;20087;-90